sensor_id;sensor_type;location;lat;lon;timestamp;P1;durP1;ratioP1;P2;durP2;ratioP2
61702;SDS011;47622;47.726;3.298;2023-04-15T00:00:51;4.25;;;2.88;;
61702;SDS011;47622;47.726;3.298;2023-04-15T00:03:18;6.35;;;2.75;;
61702;SDS011;47622;47.726;3.298;2023-04-15T00:05:44;4.13;;;2.92;;
61702;SDS011;47622;47.726;3.298;2023-04-15T00:08:10;4.55;;;2.72;;
61702;SDS011;47622;47.726;3.298;2023-04-15T00:10:37;4.55;;;2.92;;
61702;SDS011;47622;47.726;3.298;2023-04-15T00:13:03;4.32;;;3.13;;
61702;SDS011;47622;47.726;3.298;2023-04-15T00:15:28;4.80;;;3.08;;
61702;SDS011;47622;47.726;3.298;2023-04-15T00:17:54;5.63;;;3.75;;
61702;SDS011;47622;47.726;3.298;2023-04-15T00:20:20;7.28;;;3.97;;
61702;SDS011;47622;47.726;3.298;2023-04-15T00:22:45;11.40;;;6.32;;
61702;SDS011;47622;47.726;3.298;2023-04-15T00:25:11;11.13;;;5.50;;
61702;SDS011;47622;47.726;3.298;2023-04-15T00:27:37;11.85;;;5.25;;
61702;SDS011;47622;47.726;3.298;2023-04-15T00:30:03;11.50;;;6.10;;
61702;SDS011;47622;47.726;3.298;2023-04-15T00:32:29;10.00;;;5.35;;
61702;SDS011;47622;47.726;3.298;2023-04-15T00:34:55;8.45;;;5.53;;
61702;SDS011;47622;47.726;3.298;2023-04-15T00:37:21;5.88;;;3.88;;
61702;SDS011;47622;47.726;3.298;2023-04-15T00:39:47;6.63;;;3.88;;
61702;SDS011;47622;47.726;3.298;2023-04-15T00:42:13;5.30;;;3.60;;
61702;SDS011;47622;47.726;3.298;2023-04-15T00:44:39;7.25;;;4.07;;
61702;SDS011;47622;47.726;3.298;2023-04-15T00:47:06;4.85;;;3.65;;
61702;SDS011;47622;47.726;3.298;2023-04-15T00:49:33;7.93;;;4.28;;
61702;SDS011;47622;47.726;3.298;2023-04-15T00:51:58;6.60;;;4.13;;
61702;SDS011;47622;47.726;3.298;2023-04-15T00:54:24;11.07;;;4.25;;
61702;SDS011;47622;47.726;3.298;2023-04-15T00:56:50;8.27;;;4.18;;
61702;SDS011;47622;47.726;3.298;2023-04-15T00:59:17;7.93;;;4.32;;
61702;SDS011;47622;47.726;3.298;2023-04-15T01:01:44;9.48;;;4.40;;
61702;SDS011;47622;47.726;3.298;2023-04-15T01:04:11;9.57;;;4.60;;
61702;SDS011;47622;47.726;3.298;2023-04-15T01:06:37;9.70;;;3.80;;
61702;SDS011;47622;47.726;3.298;2023-04-15T01:09:02;10.40;;;4.30;;
61702;SDS011;47622;47.726;3.298;2023-04-15T01:11:28;10.15;;;4.57;;
61702;SDS011;47622;47.726;3.298;2023-04-15T01:13:57;11.30;;;5.30;;
61702;SDS011;47622;47.726;3.298;2023-04-15T01:16:23;13.75;;;4.80;;
61702;SDS011;47622;47.726;3.298;2023-04-15T01:18:51;16.00;;;6.22;;
61702;SDS011;47622;47.726;3.298;2023-04-15T01:21:18;15.23;;;5.15;;
61702;SDS011;47622;47.726;3.298;2023-04-15T01:23:45;13.52;;;5.07;;
61702;SDS011;47622;47.726;3.298;2023-04-15T01:26:12;15.70;;;5.32;;
61702;SDS011;47622;47.726;3.298;2023-04-15T01:28:38;11.27;;;4.88;;
61702;SDS011;47622;47.726;3.298;2023-04-15T01:31:08;16.05;;;4.85;;
61702;SDS011;47622;47.726;3.298;2023-04-15T01:33:36;16.42;;;5.15;;
61702;SDS011;47622;47.726;3.298;2023-04-15T01:36:02;16.48;;;5.28;;
61702;SDS011;47622;47.726;3.298;2023-04-15T01:38:29;11.65;;;5.32;;
61702;SDS011;47622;47.726;3.298;2023-04-15T01:40:55;15.07;;;5.68;;
61702;SDS011;47622;47.726;3.298;2023-04-15T01:43:21;11.70;;;4.70;;
61702;SDS011;47622;47.726;3.298;2023-04-15T01:45:47;12.40;;;5.43;;
61702;SDS011;47622;47.726;3.298;2023-04-15T01:48:13;11.82;;;4.85;;
61702;SDS011;47622;47.726;3.298;2023-04-15T01:50:38;13.50;;;5.32;;
61702;SDS011;47622;47.726;3.298;2023-04-15T01:53:04;15.45;;;5.43;;
61702;SDS011;47622;47.726;3.298;2023-04-15T01:55:30;9.60;;;5.65;;
61702;SDS011;47622;47.726;3.298;2023-04-15T01:57:55;14.85;;;6.13;;
61702;SDS011;47622;47.726;3.298;2023-04-15T02:00:21;13.27;;;5.20;;
61702;SDS011;47622;47.726;3.298;2023-04-15T02:02:47;10.60;;;6.65;;
61702;SDS011;47622;47.726;3.298;2023-04-15T02:05:13;14.88;;;6.15;;
61702;SDS011;47622;47.726;3.298;2023-04-15T02:07:41;11.15;;;5.72;;
61702;SDS011;47622;47.726;3.298;2023-04-15T02:10:07;8.45;;;5.10;;
61702;SDS011;47622;47.726;3.298;2023-04-15T02:12:34;8.93;;;4.47;;
61702;SDS011;47622;47.726;3.298;2023-04-15T02:15:00;6.82;;;4.25;;
61702;SDS011;47622;47.726;3.298;2023-04-15T02:17:26;9.15;;;4.05;;
61702;SDS011;47622;47.726;3.298;2023-04-15T02:19:52;8.70;;;4.53;;
61702;SDS011;47622;47.726;3.298;2023-04-15T02:22:20;7.38;;;3.60;;
61702;SDS011;47622;47.726;3.298;2023-04-15T02:24:46;4.63;;;3.10;;
61702;SDS011;47622;47.726;3.298;2023-04-15T02:27:15;7.43;;;3.50;;
61702;SDS011;47622;47.726;3.298;2023-04-15T02:29:42;7.05;;;3.17;;
61702;SDS011;47622;47.726;3.298;2023-04-15T02:32:08;5.63;;;3.05;;
61702;SDS011;47622;47.726;3.298;2023-04-15T02:34:35;7.45;;;3.42;;
61702;SDS011;47622;47.726;3.298;2023-04-15T02:37:05;3.80;;;2.88;;
61702;SDS011;47622;47.726;3.298;2023-04-15T02:39:33;6.28;;;3.05;;
61702;SDS011;47622;47.726;3.298;2023-04-15T02:41:59;5.68;;;2.65;;
61702;SDS011;47622;47.726;3.298;2023-04-15T02:44:25;3.03;;;2.58;;
61702;SDS011;47622;47.726;3.298;2023-04-15T02:46:51;6.72;;;2.70;;
61702;SDS011;47622;47.726;3.298;2023-04-15T02:49:21;3.42;;;2.40;;
61702;SDS011;47622;47.726;3.298;2023-04-15T02:51:47;5.85;;;2.78;;
61702;SDS011;47622;47.726;3.298;2023-04-15T02:54:17;4.18;;;2.72;;
61702;SDS011;47622;47.726;3.298;2023-04-15T02:56:43;3.88;;;2.70;;
61702;SDS011;47622;47.726;3.298;2023-04-15T02:59:10;5.80;;;2.58;;
61702;SDS011;47622;47.726;3.298;2023-04-15T03:01:36;5.80;;;2.97;;
61702;SDS011;47622;47.726;3.298;2023-04-15T03:04:02;6.30;;;2.83;;
61702;SDS011;47622;47.726;3.298;2023-04-15T03:06:28;5.65;;;2.58;;
61702;SDS011;47622;47.726;3.298;2023-04-15T03:08:54;5.07;;;3.00;;
61702;SDS011;47622;47.726;3.298;2023-04-15T03:11:21;3.88;;;2.67;;
61702;SDS011;47622;47.726;3.298;2023-04-15T03:13:46;5.05;;;3.03;;
61702;SDS011;47622;47.726;3.298;2023-04-15T03:16:12;6.53;;;3.42;;
61702;SDS011;47622;47.726;3.298;2023-04-15T03:18:38;5.97;;;3.00;;
61702;SDS011;47622;47.726;3.298;2023-04-15T03:21:04;4.88;;;2.80;;
61702;SDS011;47622;47.726;3.298;2023-04-15T03:23:30;5.57;;;2.97;;
61702;SDS011;47622;47.726;3.298;2023-04-15T03:25:56;4.50;;;2.90;;
61702;SDS011;47622;47.726;3.298;2023-04-15T03:28:23;3.00;;;2.50;;
61702;SDS011;47622;47.726;3.298;2023-04-15T03:30:49;3.35;;;2.42;;
61702;SDS011;47622;47.726;3.298;2023-04-15T03:33:15;5.65;;;2.92;;
61702;SDS011;47622;47.726;3.298;2023-04-15T03:35:41;3.17;;;2.22;;
61702;SDS011;47622;47.726;3.298;2023-04-15T03:38:08;3.65;;;2.20;;
61702;SDS011;47622;47.726;3.298;2023-04-15T03:40:34;3.20;;;2.40;;
61702;SDS011;47622;47.726;3.298;2023-04-15T03:42:59;3.50;;;1.92;;
61702;SDS011;47622;47.726;3.298;2023-04-15T03:45:25;4.45;;;1.70;;
61702;SDS011;47622;47.726;3.298;2023-04-15T03:47:51;2.72;;;1.40;;
61702;SDS011;47622;47.726;3.298;2023-04-15T03:50:17;1.73;;;1.30;;
61702;SDS011;47622;47.726;3.298;2023-04-15T03:52:43;2.55;;;1.50;;
61702;SDS011;47622;47.726;3.298;2023-04-15T03:55:09;2.67;;;1.50;;
61702;SDS011;47622;47.726;3.298;2023-04-15T03:57:34;2.42;;;1.55;;
61702;SDS011;47622;47.726;3.298;2023-04-15T04:00:03;4.47;;;2.17;;
61702;SDS011;47622;47.726;3.298;2023-04-15T04:02:30;3.47;;;1.90;;
61702;SDS011;47622;47.726;3.298;2023-04-15T04:04:56;2.17;;;1.90;;
61702;SDS011;47622;47.726;3.298;2023-04-15T04:07:22;5.43;;;1.80;;
61702;SDS011;47622;47.726;3.298;2023-04-15T04:09:48;2.53;;;2.00;;
61702;SDS011;47622;47.726;3.298;2023-04-15T04:12:16;3.72;;;2.00;;
61702;SDS011;47622;47.726;3.298;2023-04-15T04:14:43;3.92;;;2.30;;
61702;SDS011;47622;47.726;3.298;2023-04-15T04:17:08;2.38;;;2.00;;
61702;SDS011;47622;47.726;3.298;2023-04-15T04:19:34;3.10;;;2.13;;
61702;SDS011;47622;47.726;3.298;2023-04-15T04:22:00;6.90;;;2.25;;
61702;SDS011;47622;47.726;3.298;2023-04-15T04:24:26;5.20;;;2.65;;
61702;SDS011;47622;47.726;3.298;2023-04-15T04:26:52;5.82;;;3.63;;
61702;SDS011;47622;47.726;3.298;2023-04-15T04:29:17;4.47;;;2.70;;
61702;SDS011;47622;47.726;3.298;2023-04-15T04:31:43;4.03;;;2.53;;
61702;SDS011;47622;47.726;3.298;2023-04-15T04:34:09;4.15;;;2.88;;
61702;SDS011;47622;47.726;3.298;2023-04-15T04:36:35;4.57;;;3.28;;
61702;SDS011;47622;47.726;3.298;2023-04-15T04:39:01;6.10;;;3.25;;
61702;SDS011;47622;47.726;3.298;2023-04-15T04:41:27;7.07;;;3.95;;
61702;SDS011;47622;47.726;3.298;2023-04-15T04:43:52;4.85;;;3.00;;
61702;SDS011;47622;47.726;3.298;2023-04-15T04:46:18;7.55;;;3.60;;
61702;SDS011;47622;47.726;3.298;2023-04-15T04:48:43;5.70;;;3.17;;
61702;SDS011;47622;47.726;3.298;2023-04-15T04:51:09;6.75;;;3.53;;
61702;SDS011;47622;47.726;3.298;2023-04-15T04:53:35;5.18;;;3.10;;
61702;SDS011;47622;47.726;3.298;2023-04-15T04:56:02;6.22;;;3.28;;
61702;SDS011;47622;47.726;3.298;2023-04-15T04:58:27;4.95;;;3.47;;
61702;SDS011;47622;47.726;3.298;2023-04-15T05:00:53;4.80;;;3.28;;
61702;SDS011;47622;47.726;3.298;2023-04-15T05:03:19;4.03;;;3.35;;
61702;SDS011;47622;47.726;3.298;2023-04-15T05:05:44;4.35;;;2.92;;
61702;SDS011;47622;47.726;3.298;2023-04-15T05:08:10;4.55;;;3.22;;
61702;SDS011;47622;47.726;3.298;2023-04-15T05:10:36;4.95;;;3.00;;
61702;SDS011;47622;47.726;3.298;2023-04-15T05:13:01;3.83;;;3.08;;
61702;SDS011;47622;47.726;3.298;2023-04-15T05:15:27;6.15;;;3.05;;
61702;SDS011;47622;47.726;3.298;2023-04-15T05:17:53;4.07;;;2.70;;
61702;SDS011;47622;47.726;3.298;2023-04-15T05:20:19;6.72;;;3.30;;
61702;SDS011;47622;47.726;3.298;2023-04-15T05:22:44;7.07;;;3.17;;
61702;SDS011;47622;47.726;3.298;2023-04-15T05:25:10;6.28;;;3.42;;
61702;SDS011;47622;47.726;3.298;2023-04-15T05:27:36;5.90;;;3.05;;
61702;SDS011;47622;47.726;3.298;2023-04-15T05:30:02;4.07;;;2.70;;
61702;SDS011;47622;47.726;3.298;2023-04-15T05:32:28;3.70;;;2.40;;
61702;SDS011;47622;47.726;3.298;2023-04-15T05:34:53;6.80;;;2.75;;
61702;SDS011;47622;47.726;3.298;2023-04-15T05:37:19;5.38;;;2.85;;
61702;SDS011;47622;47.726;3.298;2023-04-15T05:39:46;4.57;;;2.80;;
61702;SDS011;47622;47.726;3.298;2023-04-15T05:42:12;4.57;;;2.88;;
61702;SDS011;47622;47.726;3.298;2023-04-15T05:44:38;4.97;;;3.40;;
61702;SDS011;47622;47.726;3.298;2023-04-15T05:47:04;5.22;;;3.17;;
61702;SDS011;47622;47.726;3.298;2023-04-15T05:49:31;7.03;;;3.00;;
61702;SDS011;47622;47.726;3.298;2023-04-15T05:51:56;3.38;;;2.50;;
61702;SDS011;47622;47.726;3.298;2023-04-15T05:54:22;4.10;;;2.55;;
61702;SDS011;47622;47.726;3.298;2023-04-15T05:56:48;3.35;;;2.70;;
61702;SDS011;47622;47.726;3.298;2023-04-15T05:59:13;5.13;;;2.72;;
61702;SDS011;47622;47.726;3.298;2023-04-15T06:01:40;3.13;;;2.60;;
61702;SDS011;47622;47.726;3.298;2023-04-15T06:04:06;3.90;;;2.28;;
61702;SDS011;47622;47.726;3.298;2023-04-15T06:06:33;2.70;;;2.47;;
61702;SDS011;47622;47.726;3.298;2023-04-15T06:08:59;4.10;;;2.60;;
61702;SDS011;47622;47.726;3.298;2023-04-15T06:11:24;3.13;;;2.60;;
61702;SDS011;47622;47.726;3.298;2023-04-15T06:13:51;2.92;;;2.22;;
61702;SDS011;47622;47.726;3.298;2023-04-15T06:16:17;4.30;;;2.70;;
61702;SDS011;47622;47.726;3.298;2023-04-15T06:18:42;3.65;;;2.80;;
61702;SDS011;47622;47.726;3.298;2023-04-15T06:21:08;3.47;;;2.60;;
61702;SDS011;47622;47.726;3.298;2023-04-15T06:23:34;2.67;;;2.28;;
61702;SDS011;47622;47.726;3.298;2023-04-15T06:26:01;2.65;;;2.28;;
61702;SDS011;47622;47.726;3.298;2023-04-15T06:28:27;4.88;;;2.20;;
61702;SDS011;47622;47.726;3.298;2023-04-15T06:30:53;2.55;;;2.30;;
61702;SDS011;47622;47.726;3.298;2023-04-15T06:33:19;2.80;;;2.40;;
61702;SDS011;47622;47.726;3.298;2023-04-15T06:35:45;4.53;;;2.65;;
61702;SDS011;47622;47.726;3.298;2023-04-15T06:38:11;2.92;;;2.28;;
61702;SDS011;47622;47.726;3.298;2023-04-15T06:40:38;2.50;;;2.30;;
61702;SDS011;47622;47.726;3.298;2023-04-15T06:43:04;2.78;;;1.95;;
61702;SDS011;47622;47.726;3.298;2023-04-15T06:45:29;3.42;;;2.10;;
61702;SDS011;47622;47.726;3.298;2023-04-15T06:47:55;2.47;;;2.28;;
61702;SDS011;47622;47.726;3.298;2023-04-15T06:50:21;2.78;;;2.00;;
61702;SDS011;47622;47.726;3.298;2023-04-15T06:52:47;2.30;;;2.10;;
61702;SDS011;47622;47.726;3.298;2023-04-15T06:55:12;2.42;;;2.10;;
61702;SDS011;47622;47.726;3.298;2023-04-15T06:57:39;2.70;;;2.10;;
61702;SDS011;47622;47.726;3.298;2023-04-15T07:00:05;2.35;;;2.00;;
61702;SDS011;47622;47.726;3.298;2023-04-15T07:02:31;3.90;;;2.28;;
61702;SDS011;47622;47.726;3.298;2023-04-15T07:04:57;3.85;;;1.90;;
61702;SDS011;47622;47.726;3.298;2023-04-15T07:07:23;2.30;;;2.10;;
61702;SDS011;47622;47.726;3.298;2023-04-15T07:09:49;2.17;;;1.98;;
61702;SDS011;47622;47.726;3.298;2023-04-15T07:12:18;2.63;;;2.42;;
61702;SDS011;47622;47.726;3.298;2023-04-15T07:14:44;3.72;;;2.45;;
61702;SDS011;47622;47.726;3.298;2023-04-15T07:17:09;5.57;;;3.00;;
61702;SDS011;47622;47.726;3.298;2023-04-15T07:19:36;3.60;;;3.30;;
61702;SDS011;47622;47.726;3.298;2023-04-15T07:22:02;3.15;;;2.85;;
61702;SDS011;47622;47.726;3.298;2023-04-15T07:24:28;4.80;;;2.95;;
61702;SDS011;47622;47.726;3.298;2023-04-15T07:26:54;5.05;;;3.13;;
61702;SDS011;47622;47.726;3.298;2023-04-15T07:29:23;4.47;;;2.80;;
61702;SDS011;47622;47.726;3.298;2023-04-15T07:31:51;5.07;;;3.50;;
61702;SDS011;47622;47.726;3.298;2023-04-15T07:34:18;5.30;;;2.92;;
61702;SDS011;47622;47.726;3.298;2023-04-15T07:36:46;3.90;;;3.00;;
61702;SDS011;47622;47.726;3.298;2023-04-15T07:39:18;6.03;;;3.00;;
61702;SDS011;47622;47.726;3.298;2023-04-15T07:41:44;8.32;;;3.65;;
61702;SDS011;47622;47.726;3.298;2023-04-15T07:44:11;4.95;;;3.88;;
61702;SDS011;47622;47.726;3.298;2023-04-15T07:46:37;5.28;;;3.65;;
61702;SDS011;47622;47.726;3.298;2023-04-15T07:49:03;5.38;;;3.97;;
61702;SDS011;47622;47.726;3.298;2023-04-15T07:51:28;10.65;;;4.18;;
61702;SDS011;47622;47.726;3.298;2023-04-15T07:53:54;5.50;;;3.72;;
61702;SDS011;47622;47.726;3.298;2023-04-15T07:56:20;5.03;;;4.10;;
61702;SDS011;47622;47.726;3.298;2023-04-15T07:58:46;6.45;;;4.13;;
61702;SDS011;47622;47.726;3.298;2023-04-15T08:01:12;6.60;;;4.10;;
61702;SDS011;47622;47.726;3.298;2023-04-15T08:03:38;6.88;;;4.10;;
61702;SDS011;47622;47.726;3.298;2023-04-15T08:06:04;6.03;;;4.47;;
61702;SDS011;47622;47.726;3.298;2023-04-15T08:08:30;7.18;;;4.43;;
61702;SDS011;47622;47.726;3.298;2023-04-15T08:10:57;6.10;;;3.95;;
61702;SDS011;47622;47.726;3.298;2023-04-15T08:13:24;5.18;;;4.10;;
61702;SDS011;47622;47.726;3.298;2023-04-15T08:15:52;6.18;;;4.28;;
61702;SDS011;47622;47.726;3.298;2023-04-15T08:18:38;6.68;;;4.50;;
61702;SDS011;47622;47.726;3.298;2023-04-15T08:21:04;4.88;;;4.03;;
61702;SDS011;47622;47.726;3.298;2023-04-15T08:23:30;6.70;;;3.70;;
61702;SDS011;47622;47.726;3.298;2023-04-15T08:25:56;5.82;;;3.72;;
61702;SDS011;47622;47.726;3.298;2023-04-15T08:28:22;3.80;;;3.42;;
61702;SDS011;47622;47.726;3.298;2023-04-15T08:30:48;4.22;;;3.67;;
61702;SDS011;47622;47.726;3.298;2023-04-15T08:33:13;6.40;;;3.45;;
61702;SDS011;47622;47.726;3.298;2023-04-15T08:35:39;4.47;;;3.58;;
61702;SDS011;47622;47.726;3.298;2023-04-15T08:38:05;3.92;;;2.90;;
61702;SDS011;47622;47.726;3.298;2023-04-15T08:40:34;3.53;;;2.58;;
61702;SDS011;47622;47.726;3.298;2023-04-15T08:43:12;4.00;;;2.80;;
61702;SDS011;47622;47.726;3.298;2023-04-15T08:45:46;3.40;;;2.60;;
61702;SDS011;47622;47.726;3.298;2023-04-15T08:48:15;2.65;;;2.45;;
61702;SDS011;47622;47.726;3.298;2023-04-15T08:50:42;3.05;;;2.63;;
61702;SDS011;47622;47.726;3.298;2023-04-15T08:53:08;3.63;;;2.40;;
61702;SDS011;47622;47.726;3.298;2023-04-15T08:55:35;3.00;;;2.42;;
61702;SDS011;47622;47.726;3.298;2023-04-15T08:58:06;2.33;;;2.13;;
61702;SDS011;47622;47.726;3.298;2023-04-15T09:00:33;2.50;;;2.30;;
61702;SDS011;47622;47.726;3.298;2023-04-15T09:03:00;5.68;;;2.33;;
61702;SDS011;47622;47.726;3.298;2023-04-15T09:05:26;2.83;;;2.45;;
61702;SDS011;47622;47.726;3.298;2023-04-15T09:07:51;2.08;;;1.90;;
61702;SDS011;47622;47.726;3.298;2023-04-15T09:10:17;3.75;;;2.10;;
61702;SDS011;47622;47.726;3.298;2023-04-15T09:12:43;4.35;;;1.80;;
61702;SDS011;47622;47.726;3.298;2023-04-15T09:15:12;2.10;;;1.90;;
61702;SDS011;47622;47.726;3.298;2023-04-15T09:17:42;2.13;;;1.65;;
61702;SDS011;47622;47.726;3.298;2023-04-15T09:22:35;2.28;;;1.30;;
61702;SDS011;47622;47.726;3.298;2023-04-15T09:25:02;1.65;;;1.55;;
61702;SDS011;47622;47.726;3.298;2023-04-15T09:27:28;2.28;;;1.40;;
61702;SDS011;47622;47.726;3.298;2023-04-15T09:29:53;2.65;;;1.35;;
61702;SDS011;47622;47.726;3.298;2023-04-15T09:32:19;1.27;;;1.20;;
61702;SDS011;47622;47.726;3.298;2023-04-15T09:34:47;3.50;;;1.60;;
61702;SDS011;47622;47.726;3.298;2023-04-15T09:37:13;5.07;;;2.08;;
61702;SDS011;47622;47.726;3.298;2023-04-15T09:39:48;1.42;;;1.33;;
61702;SDS011;47622;47.726;3.298;2023-04-15T09:42:16;1.77;;;1.52;;
61702;SDS011;47622;47.726;3.298;2023-04-15T09:44:48;1.40;;;1.30;;
61702;SDS011;47622;47.726;3.298;2023-04-15T09:47:29;1.35;;;1.25;;
61702;SDS011;47622;47.726;3.298;2023-04-15T09:49:57;1.52;;;1.20;;
61702;SDS011;47622;47.726;3.298;2023-04-15T09:52:24;2.00;;;1.30;;
61702;SDS011;47622;47.726;3.298;2023-04-15T09:54:51;1.40;;;1.30;;
61702;SDS011;47622;47.726;3.298;2023-04-15T09:57:20;1.10;;;1.10;;
61702;SDS011;47622;47.726;3.298;2023-04-15T09:59:46;2.50;;;1.30;;
61702;SDS011;47622;47.726;3.298;2023-04-15T10:02:12;1.17;;;1.10;;
61702;SDS011;47622;47.726;3.298;2023-04-15T10:04:39;1.20;;;1.10;;
61702;SDS011;47622;47.726;3.298;2023-04-15T10:07:09;1.05;;;1.05;;
61702;SDS011;47622;47.726;3.298;2023-04-15T10:09:37;1.20;;;1.10;;
61702;SDS011;47622;47.726;3.298;2023-04-15T10:12:04;1.10;;;1.10;;
61702;SDS011;47622;47.726;3.298;2023-04-15T10:14:36;1.30;;;1.20;;
61702;SDS011;47622;47.726;3.298;2023-04-15T10:17:03;1.10;;;1.10;;
61702;SDS011;47622;47.726;3.298;2023-04-15T10:19:30;1.30;;;1.20;;
61702;SDS011;47622;47.726;3.298;2023-04-15T10:21:58;1.48;;;1.38;;
61702;SDS011;47622;47.726;3.298;2023-04-15T10:24:24;1.75;;;1.40;;
61702;SDS011;47622;47.726;3.298;2023-04-15T10:26:50;2.40;;;1.33;;
61702;SDS011;47622;47.726;3.298;2023-04-15T10:29:17;1.40;;;1.30;;
61702;SDS011;47622;47.726;3.298;2023-04-15T10:31:42;2.33;;;1.45;;
61702;SDS011;47622;47.726;3.298;2023-04-15T10:34:09;1.75;;;1.63;;
61702;SDS011;47622;47.726;3.298;2023-04-15T10:36:35;1.67;;;1.58;;
61702;SDS011;47622;47.726;3.298;2023-04-15T10:39:01;3.13;;;1.73;;
61702;SDS011;47622;47.726;3.298;2023-04-15T10:41:48;1.98;;;1.40;;
61702;SDS011;47622;47.726;3.298;2023-04-15T10:44:41;1.60;;;1.50;;
61702;SDS011;47622;47.726;3.298;2023-04-15T10:47:09;1.50;;;1.40;;
61702;SDS011;47622;47.726;3.298;2023-04-15T10:49:54;2.13;;;1.25;;
61702;SDS011;47622;47.726;3.298;2023-04-15T10:52:23;1.38;;;1.27;;
61702;SDS011;47622;47.726;3.298;2023-04-15T10:57:38;4.05;;;1.35;;
61702;SDS011;47622;47.726;3.298;2023-04-15T11:00:09;2.00;;;1.40;;
61702;SDS011;47622;47.726;3.298;2023-04-15T11:02:46;1.30;;;1.20;;
61702;SDS011;47622;47.726;3.298;2023-04-15T11:05:17;1.30;;;1.20;;
61702;SDS011;47622;47.726;3.298;2023-04-15T11:12:55;1.50;;;1.40;;
61702;SDS011;47622;47.726;3.298;2023-04-15T11:17:59;1.63;;;1.50;;
61702;SDS011;47622;47.726;3.298;2023-04-15T11:20:36;2.67;;;1.70;;
61702;SDS011;47622;47.726;3.298;2023-04-15T11:23:03;1.80;;;1.70;;
61702;SDS011;47622;47.726;3.298;2023-04-15T11:25:30;2.00;;;1.85;;
61702;SDS011;47622;47.726;3.298;2023-04-15T11:27:57;4.00;;;1.73;;
61702;SDS011;47622;47.726;3.298;2023-04-15T11:30:25;2.35;;;1.85;;
61702;SDS011;47622;47.726;3.298;2023-04-15T11:32:54;3.17;;;2.00;;
61702;SDS011;47622;47.726;3.298;2023-04-15T11:35:22;14.23;;;2.33;;
61702;SDS011;47622;47.726;3.298;2023-04-15T11:37:48;2.30;;;2.10;;
61702;SDS011;47622;47.726;3.298;2023-04-15T11:40:22;3.78;;;1.90;;
61702;SDS011;47622;47.726;3.298;2023-04-15T11:45:52;2.88;;;2.00;;
61702;SDS011;47622;47.726;3.298;2023-04-15T11:48:20;1.88;;;1.77;;
61702;SDS011;47622;47.726;3.298;2023-04-15T11:50:54;2.28;;;2.08;;
61702;SDS011;47622;47.726;3.298;2023-04-15T11:53:24;3.50;;;1.95;;
61702;SDS011;47622;47.726;3.298;2023-04-15T11:56:03;1.95;;;1.85;;
61702;SDS011;47622;47.726;3.298;2023-04-15T11:58:30;2.55;;;2.20;;
61702;SDS011;47622;47.726;3.298;2023-04-15T12:00:58;2.55;;;2.35;;
61702;SDS011;47622;47.726;3.298;2023-04-15T12:03:28;3.28;;;2.47;;
61702;SDS011;47622;47.726;3.298;2023-04-15T12:11:39;3.88;;;2.58;;
61702;SDS011;47622;47.726;3.298;2023-04-15T12:14:15;4.57;;;2.40;;
61702;SDS011;47622;47.726;3.298;2023-04-15T12:16:44;2.92;;;2.25;;
61702;SDS011;47622;47.726;3.298;2023-04-15T12:19:13;2.75;;;2.17;;
61702;SDS011;47622;47.726;3.298;2023-04-15T12:21:48;2.95;;;2.55;;
61702;SDS011;47622;47.726;3.298;2023-04-15T12:24:14;3.45;;;2.92;;
61702;SDS011;47622;47.726;3.298;2023-04-15T12:26:44;2.65;;;2.35;;
61702;SDS011;47622;47.726;3.298;2023-04-15T12:29:11;4.65;;;2.55;;
61702;SDS011;47622;47.726;3.298;2023-04-15T12:31:48;3.15;;;2.80;;
61702;SDS011;47622;47.726;3.298;2023-04-15T12:34:27;3.72;;;3.20;;
61702;SDS011;47622;47.726;3.298;2023-04-15T12:36:54;3.60;;;2.92;;
61702;SDS011;47622;47.726;3.298;2023-04-15T12:39:25;3.20;;;2.88;;
61702;SDS011;47622;47.726;3.298;2023-04-15T12:41:52;3.95;;;2.90;;
61702;SDS011;47622;47.726;3.298;2023-04-15T12:44:19;3.53;;;2.83;;
61702;SDS011;47622;47.726;3.298;2023-04-15T12:46:46;3.90;;;2.72;;
61702;SDS011;47622;47.726;3.298;2023-04-15T12:49:12;2.97;;;2.67;;
61702;SDS011;47622;47.726;3.298;2023-04-15T12:51:44;4.18;;;2.63;;
61702;SDS011;47622;47.726;3.298;2023-04-15T12:54:09;3.20;;;2.75;;
61702;SDS011;47622;47.726;3.298;2023-04-15T12:56:35;3.33;;;2.95;;
61702;SDS011;47622;47.726;3.298;2023-04-15T12:59:01;5.78;;;3.05;;
61702;SDS011;47622;47.726;3.298;2023-04-15T13:01:27;3.88;;;3.47;;
61702;SDS011;47622;47.726;3.298;2023-04-15T13:03:53;2.92;;;2.60;;
61702;SDS011;47622;47.726;3.298;2023-04-15T13:06:18;3.13;;;2.83;;
61702;SDS011;47622;47.726;3.298;2023-04-15T13:08:44;4.88;;;2.97;;
61702;SDS011;47622;47.726;3.298;2023-04-15T13:11:10;3.47;;;3.17;;
61702;SDS011;47622;47.726;3.298;2023-04-15T13:13:36;4.60;;;3.38;;
61702;SDS011;47622;47.726;3.298;2023-04-15T13:16:01;4.47;;;3.60;;
61702;SDS011;47622;47.726;3.298;2023-04-15T13:18:27;5.60;;;3.90;;
61702;SDS011;47622;47.726;3.298;2023-04-15T13:20:55;5.35;;;3.83;;
61702;SDS011;47622;47.726;3.298;2023-04-15T13:23:21;4.55;;;3.70;;
61702;SDS011;47622;47.726;3.298;2023-04-15T13:25:47;5.88;;;3.88;;
61702;SDS011;47622;47.726;3.298;2023-04-15T13:28:12;4.20;;;3.60;;
61702;SDS011;47622;47.726;3.298;2023-04-15T13:30:38;5.95;;;4.32;;
61702;SDS011;47622;47.726;3.298;2023-04-15T13:33:04;6.13;;;5.10;;
61702;SDS011;47622;47.726;3.298;2023-04-15T13:35:33;6.43;;;4.93;;
61702;SDS011;47622;47.726;3.298;2023-04-15T13:38:00;6.88;;;5.05;;
61702;SDS011;47622;47.726;3.298;2023-04-15T13:40:26;7.70;;;4.90;;
61702;SDS011;47622;47.726;3.298;2023-04-15T13:42:52;6.07;;;5.47;;
61702;SDS011;47622;47.726;3.298;2023-04-15T13:45:18;6.53;;;5.18;;
61702;SDS011;47622;47.726;3.298;2023-04-15T13:47:44;6.50;;;4.85;;
61702;SDS011;47622;47.726;3.298;2023-04-15T13:50:09;6.85;;;5.00;;
61702;SDS011;47622;47.726;3.298;2023-04-15T13:52:35;5.88;;;5.20;;
61702;SDS011;47622;47.726;3.298;2023-04-15T13:55:02;8.10;;;5.80;;
61702;SDS011;47622;47.726;3.298;2023-04-15T13:57:28;7.93;;;5.50;;
61702;SDS011;47622;47.726;3.298;2023-04-15T13:59:54;10.18;;;6.10;;
61702;SDS011;47622;47.726;3.298;2023-04-15T14:02:20;8.10;;;6.20;;
61702;SDS011;47622;47.726;3.298;2023-04-15T14:04:46;7.05;;;5.53;;
61702;SDS011;47622;47.726;3.298;2023-04-15T14:07:11;8.40;;;5.90;;
61702;SDS011;47622;47.726;3.298;2023-04-15T14:09:37;6.50;;;5.65;;
61702;SDS011;47622;47.726;3.298;2023-04-15T14:12:03;7.22;;;6.32;;
61702;SDS011;47622;47.726;3.298;2023-04-15T14:14:29;8.38;;;5.72;;
61702;SDS011;47622;47.726;3.298;2023-04-15T14:16:55;9.57;;;7.35;;
61702;SDS011;47622;47.726;3.298;2023-04-15T14:19:21;9.07;;;6.93;;
61702;SDS011;47622;47.726;3.298;2023-04-15T14:21:48;9.05;;;7.07;;
61702;SDS011;47622;47.726;3.298;2023-04-15T14:24:13;8.75;;;7.13;;
61702;SDS011;47622;47.726;3.298;2023-04-15T14:26:39;9.95;;;6.65;;
61702;SDS011;47622;47.726;3.298;2023-04-15T14:29:05;10.60;;;7.80;;
61702;SDS011;47622;47.726;3.298;2023-04-15T14:31:30;10.10;;;7.75;;
61702;SDS011;47622;47.726;3.298;2023-04-15T14:33:56;10.05;;;7.57;;
61702;SDS011;47622;47.726;3.298;2023-04-15T14:36:22;10.38;;;7.65;;
61702;SDS011;47622;47.726;3.298;2023-04-15T14:38:47;8.88;;;7.35;;
61702;SDS011;47622;47.726;3.298;2023-04-15T14:41:14;7.82;;;6.70;;
61702;SDS011;47622;47.726;3.298;2023-04-15T14:43:40;9.73;;;7.15;;
61702;SDS011;47622;47.726;3.298;2023-04-15T14:46:06;8.80;;;7.05;;
61702;SDS011;47622;47.726;3.298;2023-04-15T14:48:32;7.57;;;6.25;;
61702;SDS011;47622;47.726;3.298;2023-04-15T14:50:58;7.60;;;6.15;;
61702;SDS011;47622;47.726;3.298;2023-04-15T14:53:23;8.95;;;6.28;;
61702;SDS011;47622;47.726;3.298;2023-04-15T14:55:49;6.35;;;5.75;;
61702;SDS011;47622;47.726;3.298;2023-04-15T14:58:15;9.95;;;5.72;;
61702;SDS011;47622;47.726;3.298;2023-04-15T15:00:41;8.02;;;5.78;;
61702;SDS011;47622;47.726;3.298;2023-04-15T15:03:09;8.50;;;5.97;;
61702;SDS011;47622;47.726;3.298;2023-04-15T15:05:42;9.35;;;6.18;;